Time;durP1;ratioP1;P1;durP2;ratioP2;P2;SDS_P1;SDS_P2;PMS_P1;PMS_P2;Temp;Humidity;BMP_temperature;BMP_pressure;BME280_temperature;BME280_humidity;BME280_pressure;Samples;Min_cycle;Max_cycle;Signal;HPM_P1;HPM_P2
2023/10/13 00:00:33;;;;;;;27.70;8.23;;;17.00;26.40;;;;;;4977955;28;20745;-73
2023/10/13 00:03:01;;;;;;;20.87;7.07;;;16.90;27.00;;;;;;4989676;28;20411;-73
2023/10/13 00:05:30;;;;;;;31.60;8.13;;;16.90;27.20;;;;;;4994405;28;20493;-73
2023/10/13 00:08:00;;;;;;;15.20;7.30;;;16.90;26.60;;;;;;4993716;28;20405;-73
2023/10/13 00:10:31;;;;;;;24.10;8.40;;;16.90;25.00;;;;;;4993086;28;20422;-73
2023/10/13 00:13:06;;;;;;;26.07;7.77;;;16.90;23.30;;;;;;4995633;28;20427;-73
2023/10/13 00:15:38;;;;;;;23.10;8.23;;;16.90;23.20;;;;;;4990073;28;20928;-73
2023/10/13 00:18:12;;;;;;;23.03;7.77;;;16.90;23.20;;;;;;4998712;28;20457;-73
2023/10/13 00:20:48;;;;;;;19.03;7.00;;;17.00;22.60;;;;;;4995107;28;20485;-81
2023/10/13 00:24:12;;;;;;;12.97;6.87;;;16.90;22.30;;;;;;4978084;28;20406;-81
2023/10/13 00:26:49;;;;;;;10.90;6.00;;;16.90;22.60;;;;;;4981562;28;20990;-81
2023/10/13 00:29:17;;;;;;;22.33;7.30;;;16.90;23.30;;;;;;4981793;28;20954;-81
2023/10/13 00:32:02;;;;;;;16.57;6.93;;;16.90;25.60;;;;;;4989428;28;20426;-81
2023/10/13 00:34:28;;;;;;;17.57;7.40;;;16.90;28.80;;;;;;4999276;28;20945;-81
2023/10/13 00:37:17;;;;;;;21.40;8.13;;;16.90;29.80;;;;;;4974861;28;20441;-73
2023/10/13 00:39:46;;;;;;;20.07;8.00;;;16.90;30.00;;;;;;4987314;28;20173;-73
2023/10/13 00:42:19;;;;;;;17.40;7.87;;;17.00;30.00;;;;;;4987779;28;20442;-73
2023/10/13 00:44:48;;;;;;;33.07;7.73;;;17.00;30.30;;;;;;4993267;28;20430;-73
2023/10/13 00:47:18;;;;;;;21.67;7.90;;;17.00;31.00;;;;;;4992788;28;20778;-73
2023/10/13 00:49:49;;;;;;;19.37;7.70;;;17.00;30.00;;;;;;4977446;28;20522;-73
2023/10/13 00:52:37;;;;;;;21.80;7.50;;;17.00;25.90;;;;;;4989596;28;20534;-81
2023/10/13 00:55:08;;;;;;;17.80;7.30;;;17.00;27.30;;;;;;4970272;28;20430;-81
2023/10/13 00:57:43;;;;;;;37.47;7.60;;;17.00;26.70;;;;;;4996188;28;20544;-81
2023/10/13 01:00:24;;;;;;;36.50;8.73;;;17.00;26.60;;;;;;4981837;28;20497;-81
2023/10/13 01:02:56;;;;;;;19.33;6.80;;;17.00;26.40;;;;;;4983996;28;20439;-81
2023/10/13 01:05:31;;;;;;;31.27;6.90;;;17.00;27.60;;;;;;4997148;28;20478;-80
2023/10/13 01:08:01;;;;;;;26.73;8.60;;;17.00;25.40;;;;;;4991830;28;20528;-73
2023/10/13 01:10:27;;;;;;;24.23;9.03;;;17.00;27.70;;;;;;4986844;28;20447;-73
2023/10/13 01:12:56;;;;;;;28.33;7.57;;;17.00;30.80;;;;;;5003126;28;20442;-73
2023/10/13 01:15:21;;;;;;;24.07;8.27;;;17.00;26.90;;;;;;4996727;28;20425;-73
2023/10/13 01:17:48;;;;;;;25.03;7.90;;;17.00;23.10;;;;;;4997083;28;20544;-73
2023/10/13 01:20:24;;;;;;;16.10;6.57;;;17.00;25.30;;;;;;4995414;28;20195;-73
2023/10/13 01:23:28;;;;;;;28.63;8.20;;;17.00;24.60;;;;;;4981333;28;20428;-81
2023/10/13 01:25:56;;;;;;;20.73;7.83;;;16.90;24.80;;;;;;4992420;28;20741;-81
2023/10/13 01:29:01;;;;;;;20.47;7.63;;;16.90;24.60;;;;;;4981580;28;20905;-81
2023/10/13 01:31:37;;;;;;;13.70;6.10;;;16.90;24.90;;;;;;4977008;28;20425;-81
2023/10/13 01:34:08;;;;;;;18.87;6.47;;;16.90;24.80;;;;;;4988051;28;20441;-81
2023/10/13 01:36:36;;;;;;;24.33;8.20;;;16.90;25.60;;;;;;4987173;28;20802;-73
2023/10/13 01:39:01;;;;;;;29.20;6.63;;;16.90;25.80;;;;;;4994523;28;20434;-73
2023/10/13 01:41:29;;;;;;;17.20;6.47;;;16.90;25.80;;;;;;4997153;28;20721;-73
2023/10/13 01:43:57;;;;;;;19.13;6.90;;;16.90;25.30;;;;;;4989625;28;20181;-74
2023/10/13 01:46:22;;;;;;;18.40;7.13;;;16.90;24.50;;;;;;4981003;28;20437;-73
2023/10/13 01:48:48;;;;;;;12.97;6.20;;;16.80;25.90;;;;;;4994648;28;20434;-73
2023/10/13 01:51:23;;;;;;;17.07;6.87;;;16.80;27.00;;;;;;4996927;28;20183;-73
2023/10/13 01:53:56;;;;;;;24.93;6.17;;;16.80;27.70;;;;;;5006749;28;20572;-73
2023/10/13 01:56:23;;;;;;;28.60;9.00;;;16.90;27.20;;;;;;4995871;28;20434;-73
2023/10/13 01:58:49;;;;;;;24.40;7.10;;;16.90;27.30;;;;;;4989020;28;20462;-73
2023/10/13 02:01:26;;;;;;;25.87;8.40;;;16.90;27.70;;;;;;4990740;28;20473;-73
2023/10/13 02:04:06;;;;;;;17.53;7.27;;;16.90;27.80;;;;;;4987094;28;20473;-73
2023/10/13 02:06:56;;;;;;;19.50;7.73;;;16.90;23.70;;;;;;4981122;28;20430;-74
2023/10/13 02:09:29;;;;;;;27.47;8.30;;;16.90;26.20;;;;;;4991888;28;20427;-73
2023/10/13 02:11:56;;;;;;;27.20;8.23;;;16.90;26.00;;;;;;4996160;28;20953;-73
2023/10/13 02:14:23;;;;;;;26.53;7.70;;;16.90;26.10;;;;;;4995433;28;20407;-73
2023/10/13 02:16:50;;;;;;;12.63;6.13;;;16.90;25.80;;;;;;4996435;28;20424;-73
2023/10/13 02:19:19;;;;;;;465.33;162.93;;;16.90;25.60;;;;;;4991477;28;20436;-73
2023/10/13 02:21:45;;;;;;;23.60;6.40;;;16.90;25.70;;;;;;4988814;28;20558;-81
2023/10/13 02:24:30;;;;;;;11.63;6.73;;;16.90;25.40;;;;;;4995413;28;20518;-81
2023/10/13 02:27:13;;;;;;;11.17;5.53;;;16.80;25.30;;;;;;4979668;28;20428;-81
2023/10/13 02:30:12;;;;;;;14.10;6.63;;;16.80;24.90;;;;;;4983690;28;20401;-81
2023/10/13 02:32:49;;;;;;;32.73;8.47;;;16.90;25.20;;;;;;4984764;28;20403;-81
2023/10/13 02:35:17;;;;;;;17.03;6.57;;;16.90;25.40;;;;;;4967042;28;20407;-81
2023/10/13 02:37:44;;;;;;;13.40;6.70;;;16.90;25.30;;;;;;4966154;28;20514;-73
2023/10/13 02:40:11;;;;;;;12.80;6.50;;;16.90;25.20;;;;;;4994901;28;20490;-73
2023/10/13 02:42:38;;;;;;;361.13;171.60;;;16.80;24.30;;;;;;4991224;28;20454;-73
2023/10/13 02:45:11;;;;;;;14.20;6.90;;;16.80;23.20;;;;;;4993104;28;20829;-73
2023/10/13 02:47:37;;;;;;;28.07;7.57;;;16.80;22.30;;;;;;4992546;28;20403;-74
2023/10/13 02:50:11;;;;;;;15.90;6.70;;;16.70;22.20;;;;;;4986280;28;20455;-73
2023/10/13 02:52:41;;;;;;;18.10;7.00;;;16.60;20.10;;;;;;4983582;28;20176;-73
2023/10/13 02:55:10;;;;;;;16.23;6.40;;;16.60;22.50;;;;;;4988235;28;20518;-73
2023/10/13 02:57:36;;;;;;;20.47;7.20;;;16.60;22.30;;;;;;4993839;28;20801;-73
2023/10/13 03:00:15;;;;;;;12.00;6.57;;;16.60;22.80;;;;;;4994564;28;20445;-73
2023/10/13 03:02:46;;;;;;;22.63;7.77;;;16.60;22.50;;;;;;4999834;28;20401;-74
2023/10/13 03:05:13;;;;;;;380.30;150.37;;;16.60;22.70;;;;;;4995186;28;20419;-73
2023/10/13 03:07:44;;;;;;;17.40;7.00;;;16.60;20.70;;;;;;4992902;28;20435;-73
2023/10/13 03:10:10;;;;;;;18.93;6.77;;;16.60;23.20;;;;;;4994039;28;20466;-73
2023/10/13 03:12:37;;;;;;;18.57;7.20;;;16.60;23.40;;;;;;4992582;28;20785;-73
2023/10/13 03:15:15;;;;;;;16.67;6.10;;;16.60;24.10;;;;;;4984016;28;20423;-74
2023/10/13 03:17:44;;;;;;;22.77;7.73;;;16.60;23.80;;;;;;4992314;28;20530;-74
2023/10/13 03:20:22;;;;;;;17.27;7.70;;;16.70;24.00;;;;;;4981704;28;20760;-74
2023/10/13 03:22:52;;;;;;;24.70;8.07;;;16.70;21.50;;;;;;4980215;28;20905;-73
2023/10/13 03:30:21;;;;;;;19.63;6.63;;;16.70;24.20;;;;;;4981047;28;20538;-74
2023/10/13 03:32:48;;;;;;;32.13;7.90;;;16.60;24.30;;;;;;4989819;28;21256;-73
2023/10/13 03:35:43;;;;;;;17.00;7.17;;;16.70;24.50;;;;;;4976416;28;20406;-83
2023/10/13 03:41:45;;;;;;;12.63;7.07;;;16.60;22.30;;;;;;4983039;28;20391;-86
2023/10/13 03:47:32;;;;;;;25.93;7.97;;;16.50;28.40;;;;;;4983300;28;20397;-86
2023/10/13 03:50:32;;;;;;;19.40;8.97;;;16.50;30.60;;;;;;4971593;28;20395;-86
2023/10/13 03:53:02;;;;;;;27.13;9.37;;;16.50;37.70;;;;;;4972231;28;20584;-84
2023/10/13 03:59:34;;;;;;;24.23;9.87;;;16.60;44.60;;;;;;4983272;28;20436;-86
2023/10/13 04:22:14;;;;;;;24.00;9.50;;;16.70;36.30;;;;;;4987100;28;20405;-86
2023/10/13 04:25:28;;;;;;;16.73;8.20;;;16.70;35.30;;;;;;4981113;28;20405;-86
2023/10/13 04:36:45;;;;;;;15.13;8.60;;;16.70;33.90;;;;;;4983957;28;20381;-86
2023/10/13 04:39:29;;;;;;;13.33;8.30;;;16.70;28.60;;;;;;4993083;28;20786;-83
2023/10/13 04:42:38;;;;;;;37.43;10.37;;;16.70;29.30;;;;;;4978347;28;20419;-83
2023/10/13 04:45:53;;;;;;;15.80;8.33;;;16.70;30.20;;;;;;4987139;28;20790;-83
2023/10/13 04:48:38;;;;;;;17.93;8.53;;;16.80;30.80;;;;;;4977128;28;20510;-84
2023/10/13 04:57:52;;;;;;;17.53;8.50;;;16.90;25.40;;;;;;4986235;28;20470;-86
2023/10/13 05:00:56;;;;;;;23.83;10.40;;;16.90;27.70;;;;;;4983060;28;20397;-87
2023/10/13 05:03:53;;;;;;;21.57;8.80;;;16.90;23.70;;;;;;4996627;28;20507;-85
2023/10/13 05:44:37;;;;;;;17.03;7.90;;;16.90;17.50;;;;;;4936331;29;20409;-84
2023/10/13 05:50:57;;;;;;;20.27;9.37;;;16.80;20.20;;;;;;4990607;28;20526;-85
2023/10/13 06:30:25;;;;;;;23.60;7.90;;;17.20;18.50;;;;;;5005799;28;20412;-85
2023/10/13 06:33:19;;;;;;;18.03;8.23;;;17.30;16.70;;;;;;5006649;28;20518;-85
2023/10/13 06:41:55;;;;;;;18.70;7.50;;;17.40;13.00;;;;;;4993086;28;20435;-86
2023/10/13 06:48:40;;;;;;;24.23;9.10;;;17.60;13.10;;;;;;4986559;28;20423;-86
2023/10/13 06:54:55;;;;;;;25.60;7.60;;;17.90;2.70;;;;;;4976061;28;20425;-87
2023/10/13 06:57:59;;;;;;;14.73;7.57;;;18.00;1.00;;;;;;4981780;28;20421;-81
2023/10/13 07:00:35;;;;;;;16.67;7.00;;;18.10;1.00;;;;;;4968036;28;20451;-81
2023/10/13 07:03:17;;;;;;;12.93;7.30;;;18.00;1.00;;;;;;4983257;28;20443;-81
2023/10/13 07:05:44;;;;;;;22.83;7.00;;;18.00;1.00;;;;;;4982476;28;20417;-82
2023/10/13 07:08:23;;;;;;;17.77;6.67;;;18.10;1.00;;;;;;4975926;28;20439;-82
2023/10/13 07:14:16;;;;;;;19.70;7.27;;;18.20;1.00;;;;;;4980297;28;20472;-86
2023/10/13 07:26:15;;;;;;;11.13;6.43;;;18.50;1.00;;;;;;4984665;28;20403;-82
2023/10/13 07:28:43;;;;;;;15.37;6.40;;;18.50;1.00;;;;;;4979004;28;20931;-82
2023/10/13 07:31:20;;;;;;;19.63;6.73;;;;;;;;;;4981758;28;20533;-82
2023/10/13 07:34:16;;;;;;;8.33;5.40;;;18.60;1.00;;;;;;4970839;28;20453;-82
2023/10/13 07:37:00;;;;;;;11.30;5.67;;;18.70;1.00;;;;;;4994278;28;20429;-82
2023/10/13 07:40:21;;;;;;;12.63;6.13;;;18.90;1.00;;;;;;4981557;28;20431;-82
2023/10/13 07:43:13;;;;;;;17.67;6.13;;;19.00;1.00;;;;;;4974813;28;20524;-82
2023/10/13 07:45:58;;;;;;;13.13;6.67;;;19.10;1.00;;;;;;4974590;28;20508;-82
2023/10/13 07:48:25;;;;;;;16.43;5.80;;;19.10;1.00;;;;;;4980916;28;20470;-82
2023/10/13 07:51:13;;;;;;;14.00;5.57;;;19.30;1.00;;;;;;4981335;28;20921;-82
2023/10/13 07:54:07;;;;;;;14.50;6.03;;;19.10;1.00;;;;;;4974998;28;20496;-82
2023/10/13 08:00:25;;;;;;;14.33;6.00;;;19.30;1.00;;;;;;4933783;29;20423;-79
2023/10/13 08:06:38;;;;;;;13.93;6.10;;;19.70;1.00;;;;;;4934255;29;20927;-82
2023/10/13 08:09:51;;;;;;;12.70;5.50;;;19.90;1.00;;;;;;4934048;29;20855;-81
2023/10/13 08:12:37;;;;;;;18.63;6.33;;;19.90;1.00;;;;;;4926076;29;21011;-82
2023/10/13 08:15:31;;;;;;;12.43;5.60;;;20.20;1.00;;;;;;4915101;29;20429;-82
2023/10/13 08:18:33;;;;;;;10.40;5.03;;;20.20;1.00;;;;;;4932125;29;20435;-82
2023/10/13 08:21:04;;;;;;;21.03;6.37;;;20.70;1.00;;;;;;4930858;29;20420;-82
2023/10/13 08:46:28;;;;;;;13.07;4.77;;;21.00;1.00;;;;;;4989542;28;20498;-87
2023/10/13 08:49:29;;;;;;;15.00;4.93;;;20.90;1.00;;;;;;4997825;28;20487;-85
2023/10/13 09:01:59;;;;;;;13.10;4.90;;;21.40;1.00;;;;;;4998030;28;20423;-86
2023/10/13 09:04:34;;;;;;;24.90;5.13;;;21.50;1.00;;;;;;4963163;28;20426;-87
2023/10/13 09:09:58;;;;;;;11.40;5.30;;;21.10;1.00;;;;;;4984655;28;20510;-87
2023/10/13 09:16:15;;;;;;;11.10;5.00;;;21.00;1.00;;;;;;4990138;28;20926;-83
2023/10/13 09:19:06;;;;;;;13.20;5.40;;;21.10;1.00;;;;;;4986416;28;20468;-83
2023/10/13 09:22:07;;;;;;;658.03;310.97;;;21.10;1.00;;;;;;4988993;28;20543;-83
2023/10/13 09:24:36;;;;;;;250.60;30.37;;;21.30;1.00;;;;;;4982423;28;20422;-83
2023/10/13 09:27:13;;;;;;;14.33;5.50;;;21.30;1.00;;;;;;4985860;28;20942;-82
2023/10/13 09:29:52;;;;;;;11.50;4.63;;;21.40;1.00;;;;;;4977633;28;20796;-82
2023/10/13 09:32:19;;;;;;;15.97;5.50;;;21.50;1.00;;;;;;4997467;28;20456;-82
2023/10/13 09:35:01;;;;;;;16.33;5.40;;;21.70;1.00;;;;;;5007225;28;20432;-83
2023/10/13 09:37:27;;;;;;;14.93;4.50;;;21.80;1.00;;;;;;4991385;28;20419;-82
2023/10/13 09:40:24;;;;;;;723.40;355.70;;;21.90;1.00;;;;;;4987088;28;20948;-83
2023/10/13 09:46:44;;;;;;;725.17;357.30;;;22.20;1.00;;;;;;4987333;28;20757;-86
2023/10/13 09:49:29;;;;;;;16.50;3.90;;;22.20;1.00;;;;;;4994301;28;21014;-85
2023/10/13 09:52:25;;;;;;;14.80;4.07;;;21.90;1.00;;;;;;4989932;28;20476;-86
2023/10/13 09:55:30;;;;;;;16.70;4.63;;;21.70;1.00;;;;;;4983623;28;20508;-84
2023/10/13 09:58:29;;;;;;;15.90;5.20;;;21.60;1.00;;;;;;4977501;28;20535;-86
2023/10/13 10:04:18;;;;;;;10.20;4.40;;;21.60;1.00;;;;;;4977944;28;20422;-86
2023/10/13 10:06:59;;;;;;;7.37;4.50;;;21.70;1.00;;;;;;4990186;28;20463;-86
2023/10/13 10:09:56;;;;;;;26.97;19.17;;;21.80;1.00;;;;;;4991896;28;20468;-86
2023/10/13 10:13:01;;;;;;;8.60;3.77;;;21.90;1.00;;;;;;4994375;28;20445;-82
2023/10/13 10:16:07;;;;;;;15.27;4.30;;;22.00;1.00;;;;;;4970097;28;20957;-83
2023/10/13 10:18:39;;;;;;;10.30;4.90;;;22.30;1.00;;;;;;4987315;28;20458;-82
2023/10/13 10:21:07;;;;;;;642.90;354.70;;;22.30;1.00;;;;;;4981603;28;20435;-82
2023/10/13 10:23:43;;;;;;;10.40;4.20;;;22.40;1.00;;;;;;4971467;28;20987;-82
2023/10/13 10:26:20;;;;;;;9.73;4.40;;;22.40;1.00;;;;;;4976961;28;20430;-82
2023/10/13 10:28:55;;;;;;;10.80;4.90;;;22.40;1.00;;;;;;4987519;28;20428;-82
2023/10/13 10:31:55;;;;;;;532.93;353.77;;;22.40;1.00;;;;;;5003406;28;20443;-82
2023/10/13 10:34:32;;;;;;;9.73;4.03;;;22.60;1.00;;;;;;4958588;28;20413;-83
2023/10/13 10:37:08;;;;;;;8.07;4.20;;;22.70;1.00;;;;;;4971764;28;20479;-83
2023/10/13 10:39:53;;;;;;;17.27;5.63;;;22.90;1.00;;;;;;4969793;28;20471;-83
2023/10/13 10:42:43;;;;;;;8.50;4.07;;;23.20;1.00;;;;;;4974908;28;20435;-83
2023/10/13 10:45:13;;;;;;;488.50;353.40;;;23.40;1.00;;;;;;4995357;28;20447;-83
2023/10/13 10:47:47;;;;;;;17.70;4.67;;;23.60;1.00;;;;;;4982508;28;20488;-84
2023/10/13 10:50:34;;;;;;;144.67;116.60;;;23.90;1.00;;;;;;5009109;28;20776;-84
2023/10/13 10:53:08;;;;;;;27.03;7.00;;;24.10;1.00;;;;;;4984150;28;20759;-83
2023/10/13 10:55:37;;;;;;;513.97;411.23;;;24.10;1.00;;;;;;4977249;28;20455;-83
2023/10/13 10:58:06;;;;;;;8.47;4.50;;;24.30;1.00;;;;;;4974663;28;20458;-88
2023/10/13 11:01:11;;;;;;;565.03;446.00;;;24.70;1.00;;;;;;4995302;28;20410;-87
2023/10/13 11:03:57;;;;;;;12.63;4.70;;;24.60;1.00;;;;;;4994195;28;20462;-87
2023/10/13 11:06:45;;;;;;;18.63;5.83;;;24.90;1.00;;;;;;4972835;28;20468;-86
2023/10/13 11:15:14;;;;;;;13.73;5.67;;;24.50;1.00;;;;;;4993214;28;20517;-87
2023/10/13 11:17:56;;;;;;;9.40;5.10;;;24.50;1.00;;;;;;4982118;28;20845;-87
2023/10/13 11:20:43;;;;;;;7.10;4.23;;;24.50;1.00;;;;;;4985599;28;20419;-87
2023/10/13 11:23:25;;;;;;;12.77;4.73;;;24.40;1.00;;;;;;4994476;28;20774;-87
2023/10/13 11:26:03;;;;;;;14.23;4.10;;;24.40;1.00;;;;;;4981884;28;20489;-87
2023/10/13 11:28:50;;;;;;;7.07;4.50;;;24.50;1.00;;;;;;4977095;28;20439;-87
2023/10/13 11:31:25;;;;;;;18.83;5.27;;;24.50;1.00;;;;;;4992843;28;20424;-87
2023/10/13 11:33:56;;;;;;;10.80;4.90;;;24.50;1.00;;;;;;4979760;28;20534;-87
2023/10/13 11:36:31;;;;;;;847.97;475.77;;;24.70;1.00;;;;;;4977666;28;20490;-87
2023/10/13 11:39:22;;;;;;;12.40;4.80;;;24.80;1.00;;;;;;4972403;28;20459;-87
2023/10/13 11:41:55;;;;;;;11.20;4.73;;;25.00;1.00;;;;;;4988427;28;20425;-86
2023/10/13 11:44:30;;;;;;;741.60;501.87;;;25.50;1.00;;;;;;4965741;28;20933;-83
2023/10/13 11:47:32;;;;;;;589.13;509.43;;;25.50;1.00;;;;;;4991866;28;20389;-83
2023/10/13 11:50:08;;;;;;;66.80;61.07;;;25.80;1.00;;;;;;4975348;28;20438;-83
2023/10/13 11:52:44;;;;;;;162.07;148.50;;;25.90;1.00;;;;;;4977782;28;20504;-84
2023/10/13 11:55:20;;;;;;;10.87;7.50;;;26.30;1.00;;;;;;4958261;28;20468;-84
2023/10/13 11:58:25;;;;;;;5.40;4.10;;;26.70;1.00;;;;;;4970938;28;20505;-88
2023/10/13 12:05:37;;;;;;;14.90;4.70;;;27.00;1.00;;;;;;4975411;28;20498;-88
2023/10/13 12:12:04;;;;;;;18.47;4.73;;;26.40;1.00;;;;;;4991662;28;20444;-88
2023/10/13 12:14:37;;;;;;;9.80;4.60;;;26.00;1.00;;;;;;4988404;28;20490;-83
2023/10/13 12:20:32;;;;;;;15.10;5.90;;;25.70;1.00;;;;;;4996423;28;20500;-83
2023/10/13 12:23:20;;;;;;;12.10;4.77;;;25.90;1.00;;;;;;4986389;28;20930;-84
2023/10/13 12:25:59;;;;;;;12.40;4.77;;;26.00;1.00;;;;;;4975304;28;20431;-83
2023/10/13 12:28:26;;;;;;;15.50;4.10;;;26.10;1.00;;;;;;4986841;28;20432;-91
2023/10/13 12:31:01;;;;;;;10.13;4.53;;;26.20;1.00;;;;;;4985975;28;20778;-88
2023/10/13 12:34:06;;;;;;;18.97;6.23;;;26.20;1.00;;;;;;4973990;28;20448;-88
2023/10/13 12:36:41;;;;;;;11.87;4.47;;;26.40;1.00;;;;;;4995092;28;20437;-89
2023/10/13 12:49:49;;;;;;;6.80;3.70;;;26.60;1.00;;;;;;4982957;28;20793;-85
2023/10/13 12:52:31;;;;;;;10.00;4.43;;;26.50;1.00;;;;;;4983132;28;20423;-85
2023/10/13 12:55:27;;;;;;;11.30;4.80;;;26.70;1.00;;;;;;4980583;28;20424;-84
2023/10/13 12:58:13;;;;;;;6.40;4.07;;;26.70;1.00;;;;;;5004720;28;20476;-85
2023/10/13 13:01:06;;;;;;;10.80;4.33;;;26.70;1.00;;;;;;4997614;28;20442;-84
2023/10/13 13:03:50;;;;;;;15.20;4.67;;;26.80;1.00;;;;;;4997312;28;20520;-85
2023/10/13 13:06:29;;;;;;;10.00;4.30;;;26.90;1.00;;;;;;4964956;28;20431;-85
2023/10/13 13:09:13;;;;;;;8.33;4.00;;;26.90;1.00;;;;;;4996589;28;20997;-85
2023/10/13 13:11:58;;;;;;;7.37;3.43;;;26.90;1.00;;;;;;4986604;28;20427;-85
2023/10/13 13:14:55;;;;;;;8.50;4.33;;;27.00;1.00;;;;;;4974955;28;20424;-90
2023/10/13 13:17:25;;;;;;;13.57;4.10;;;27.10;1.00;;;;;;4972479;28;20425;-90
2023/10/13 13:23:14;;;;;;;8.27;3.53;;;27.50;1.00;;;;;;4985008;28;20392;-90
2023/10/13 13:25:56;;;;;;;5.60;3.70;;;27.70;1.00;;;;;;4961276;28;20443;-90
2023/10/13 13:28:28;;;;;;;9.83;4.17;;;27.80;1.00;;;;;;4987666;28;20418;-90
2023/10/13 13:30:55;;;;;;;5.90;3.67;;;28.00;1.00;;;;;;4991338;28;20437;-84
2023/10/13 13:33:26;;;;;;;11.77;4.00;;;27.90;1.00;;;;;;4981399;28;20485;-85
2023/10/13 13:35:59;;;;;;;7.17;4.17;;;27.80;1.00;;;;;;4986904;28;20429;-85
2023/10/13 13:38:31;;;;;;;8.43;4.30;;;27.90;1.00;;;;;;4978801;28;20454;-84
2023/10/13 13:41:25;;;;;;;8.20;3.80;;;28.10;1.00;;;;;;4966710;28;20930;-85
2023/10/13 13:43:56;;;;;;;17.80;4.07;;;28.10;1.00;;;;;;4966733;28;20783;-90
2023/10/13 13:46:32;;;;;;;13.67;4.60;;;28.00;1.00;;;;;;4993545;28;20521;-90
2023/10/13 13:49:17;;;;;;;10.10;4.30;;;28.10;1.00;;;;;;4973875;28;20976;-90
2023/10/13 13:51:56;;;;;;;10.03;4.30;;;28.20;1.00;;;;;;4966584;28;20420;-91
2023/10/13 13:54:56;;;;;;;13.83;3.87;;;28.50;1.00;;;;;;4991983;28;20429;-90
2023/10/13 13:57:55;;;;;;;13.03;4.47;;;28.10;1.00;;;;;;4976250;28;20440;-91
2023/10/13 14:00:58;;;;;;;8.00;3.90;;;28.10;1.00;;;;;;4978912;28;20593;-90
2023/10/13 14:03:44;;;;;;;9.43;4.43;;;28.10;1.00;;;;;;4989199;28;20439;-90
2023/10/13 14:06:55;;;;;;;15.93;4.47;;;28.00;1.00;;;;;;4972812;28;20470;-90
2023/10/13 14:09:40;;;;;;;10.70;4.60;;;27.90;1.00;;;;;;4976644;28;20430;-91
2023/10/13 14:12:49;;;;;;;13.80;4.60;;;27.80;1.00;;;;;;4984996;28;21008;-90
2023/10/13 14:15:26;;;;;;;9.63;3.70;;;27.50;1.00;;;;;;4969230;28;20433;-90
2023/10/13 14:17:51;;;;;;;12.47;3.67;;;27.10;1.00;;;;;;4989212;28;21016;-90
2023/10/13 14:20:26;;;;;;;14.00;4.40;;;26.80;1.00;;;;;;4982325;28;20444;-90
2023/10/13 14:22:52;;;;;;;7.07;3.80;;;26.70;1.00;;;;;;4977965;28;20718;-91
2023/10/13 14:25:28;;;;;;;13.83;3.87;;;26.60;1.00;;;;;;4990690;28;20455;-91
2023/10/13 14:28:19;;;;;;;9.30;4.03;;;26.60;1.00;;;;;;4983220;28;20737;-91
2023/10/13 14:30:55;;;;;;;10.80;3.77;;;26.70;1.00;;;;;;4962997;28;20468;-89
2023/10/13 14:33:56;;;;;;;7.83;3.70;;;26.60;1.00;;;;;;4985952;28;20482;-90
2023/10/13 14:36:28;;;;;;;18.10;4.03;;;26.70;1.00;;;;;;4974121;28;20443;-92
2023/10/13 14:38:56;;;;;;;12.07;3.47;;;26.70;1.00;;;;;;4978227;28;21014;-91
2023/10/13 14:41:22;;;;;;;9.83;3.70;;;26.80;1.00;;;;;;4984900;28;20437;-86
2023/10/13 14:44:07;;;;;;;22.73;3.83;;;26.70;1.00;;;;;;4969758;28;20863;-87
2023/10/13 14:46:55;;;;;;;11.37;4.57;;;26.80;1.00;;;;;;4981906;28;20179;-86
2023/10/13 14:49:25;;;;;;;7.93;3.17;;;26.80;1.00;;;;;;4966183;28;20532;-86
2023/10/13 14:55:47;;;;;;;11.33;3.77;;;26.70;1.00;;;;;;5086097;28;20283;-83
2023/10/13 14:59:07;;;;;;;12.80;4.07;;;26.70;1.00;;;;;;5051387;28;21637;-83
2023/10/13 15:02:01;;;;;;;5.93;3.83;;;26.60;1.00;;;;;;5057893;28;20943;-83
2023/10/13 15:05:02;;;;;;;11.70;3.90;;;26.50;1.00;;;;;;5057715;28;20479;-83
2023/10/13 15:08:07;;;;;;;6.13;3.60;;;26.40;1.00;;;;;;5062359;28;20425;-86
2023/10/13 15:10:38;;;;;;;8.70;3.33;;;26.40;1.00;;;;;;5052781;28;20477;-85
2023/10/13 15:13:18;;;;;;;7.70;3.50;;;26.50;1.00;;;;;;5050553;28;20852;-85
2023/10/13 15:15:44;;;;;;;7.03;3.40;;;26.50;1.00;;;;;;5058578;28;20443;-83
2023/10/13 15:18:11;;;;;;;8.07;3.67;;;26.50;1.00;;;;;;5047454;28;20437;-84
2023/10/13 15:20:44;;;;;;;6.00;3.40;;;26.30;1.00;;;;;;5057856;28;20974;-83
2023/10/13 15:23:14;;;;;;;11.73;3.63;;;26.10;1.00;;;;;;5057967;28;20419;-83
2023/10/13 15:26:21;;;;;;;7.47;3.10;;;26.10;1.00;;;;;;5052756;28;20464;-83
2023/10/13 15:28:57;;;;;;;9.13;4.00;;;26.10;1.00;;;;;;5050717;28;20478;-83
2023/10/13 15:34:26;;;;;;;8.00;2.90;;;25.90;1.00;;;;;;5039130;28;20484;-83
2023/10/13 15:36:54;;;;;;;14.00;3.47;;;25.80;1.00;;;;;;5050345;28;20428;-84
2023/10/13 15:39:24;;;;;;;8.90;3.67;;;25.70;1.00;;;;;;5048124;28;20768;-84
2023/10/13 15:41:52;;;;;;;7.40;3.77;;;25.80;1.00;;;;;;5065319;28;20414;-84
2023/10/13 15:44:29;;;;;;;16.57;3.27;;;25.80;1.00;;;;;;5062454;28;20444;-84
2023/10/13 15:47:01;;;;;;;4.17;2.90;;;25.70;1.00;;;;;;5056692;28;20447;-84
2023/10/13 15:49:49;;;;;;;8.90;3.37;;;25.40;1.00;;;;;;5061527;28;20441;-84
2023/10/13 15:52:20;;;;;;;5.70;3.43;;;25.40;1.00;;;;;;5043942;28;20453;-83
2023/10/13 15:55:04;;;;;;;15.50;3.63;;;25.30;1.00;;;;;;5054589;28;20482;-83
2023/10/13 15:57:44;;;;;;;16.80;3.43;;;25.20;1.00;;;;;;5056256;28;20431;-83
2023/10/13 16:00:26;;;;;;;20.50;3.53;;;25.00;1.00;;;;;;5053810;28;20460;-83
2023/10/13 16:12:58;;;;;;;14.13;3.87;;;24.50;1.00;;;;;;5036875;28;20389;-89
2023/10/13 16:18:47;;;;;;;8.33;3.30;;;24.00;1.00;;;;;;5037150;28;20694;-89
2023/10/13 16:22:09;;;;;;;11.03;4.33;;;23.90;1.00;;;;;;5034618;28;20495;-89
2023/10/13 16:34:41;;;;;;;7.40;3.93;;;23.20;1.00;;;;;;5055466;28;20514;-84
2023/10/13 16:37:45;;;;;;;11.13;3.70;;;23.00;1.00;;;;;;5054669;28;20980;-83
2023/10/13 16:40:27;;;;;;;13.40;4.07;;;;;;;;;;5031707;28;20203;-83
2023/10/13 16:43:33;;;;;;;7.90;3.80;;;22.70;1.00;;;;;;5029958;28;20420;-83
2023/10/13 16:45:59;;;;;;;14.63;4.23;;;22.60;1.00;;;;;;5035710;28;20794;-84
2023/10/13 16:48:48;;;;;;;16.93;5.07;;;22.50;1.00;;;;;;5035797;28;21766;-92
2023/10/13 16:51:25;;;;;;;16.00;4.10;;;22.30;1.00;;;;;;5040609;28;20430;-89
2023/10/13 16:53:51;;;;;;;19.23;3.90;;;22.20;1.00;;;;;;5040308;28;20475;-90
2023/10/13 16:56:18;;;;;;;12.37;4.67;;;22.10;1.00;;;;;;5045321;28;20420;-89
2023/10/13 17:02:21;;;;;;;14.20;4.37;;;21.90;1.00;;;;;;5037951;28;20453;-89
2023/10/13 17:04:49;;;;;;;15.63;4.10;;;21.80;1.00;;;;;;5045448;28;20454;-85
2023/10/13 17:07:15;;;;;;;19.00;4.93;;;21.70;1.00;;;;;;5051399;28;20786;-83
2023/10/13 17:09:45;;;;;;;10.20;4.20;;;21.70;1.00;;;;;;5033074;28;20403;-84
2023/10/13 17:12:14;;;;;;;18.13;4.60;;;;;;;;;;5052113;28;20184;-83
2023/10/13 17:14:52;;;;;;;12.83;5.07;;;21.50;1.00;;;;;;5051700;28;20546;-82
2023/10/13 17:17:26;;;;;;;15.17;5.00;;;21.40;1.00;;;;;;5027355;28;20439;-83
2023/10/13 17:20:09;;;;;;;13.13;5.20;;;21.30;1.00;;;;;;5026966;28;20829;-87
2023/10/13 17:23:08;;;;;;;22.27;5.83;;;21.30;1.00;;;;;;5030824;28;20493;-88
2023/10/13 17:28:58;;;;;;;13.77;5.33;;;21.20;1.00;;;;;;5039260;28;20527;-87
2023/10/13 17:31:37;;;;;;;12.90;4.80;;;21.10;1.00;;;;;;5033071;28;20448;-87
2023/10/13 17:34:03;;;;;;;15.70;4.83;;;21.00;1.00;;;;;;5042039;28;20459;-84
2023/10/13 17:36:58;;;;;;;15.60;5.30;;;20.90;1.00;;;;;;5037981;28;20480;-82
2023/10/13 17:39:39;;;;;;;11.83;4.80;;;20.80;1.00;;;;;;5024298;28;20238;-82
2023/10/13 17:42:05;;;;;;;16.40;5.90;;;20.80;1.00;;;;;;5032843;28;20947;-82
2023/10/13 17:44:55;;;;;;;19.27;5.90;;;20.80;1.00;;;;;;5024989;28;20474;-83
2023/10/13 17:47:49;;;;;;;24.97;4.90;;;20.70;1.00;;;;;;5032334;28;20223;-82
2023/10/13 17:50:37;;;;;;;14.83;5.03;;;20.60;1.00;;;;;;5028252;28;20445;-81
2023/10/13 17:53:04;;;;;;;12.17;5.03;;;20.60;1.00;;;;;;5036993;28;20494;-82
2023/10/13 17:56:19;;;;;;;13.30;4.97;;;20.60;1.00;;;;;;5044606;28;20463;-82
2023/10/13 17:58:45;;;;;;;19.87;6.57;;;20.60;1.00;;;;;;5023990;28;20449;-83
2023/10/13 18:01:20;;;;;;;15.50;5.53;;;20.60;1.00;;;;;;5042770;28;20444;-82
2023/10/13 18:04:09;;;;;;;23.23;5.27;;;;;;;;;;5029744;28;20433;-83
2023/10/13 18:06:44;;;;;;;11.67;4.87;;;20.40;1.00;;;;;;5030615;28;20399;-82
2023/10/13 18:09:27;;;;;;;15.77;5.80;;;20.30;1.00;;;;;;5016593;28;20407;-82
2023/10/13 18:12:04;;;;;;;14.33;5.30;;;20.30;1.00;;;;;;5031936;28;21143;-82
2023/10/13 18:14:50;;;;;;;16.23;5.40;;;20.30;1.00;;;;;;5036806;28;20492;-82
2023/10/13 18:17:21;;;;;;;8.43;4.80;;;20.20;1.00;;;;;;5039877;28;20472;-81
2023/10/13 18:20:03;;;;;;;14.80;5.57;;;20.20;1.00;;;;;;5034238;28;20756;-83
2023/10/13 18:23:14;;;;;;;12.50;5.33;;;20.20;1.00;;;;;;5033299;28;20516;-82
2023/10/13 18:29:09;;;;;;;14.60;4.80;;;20.00;1.00;;;;;;5032428;28;20403;-83
2023/10/13 18:32:02;;;;;;;10.57;4.20;;;19.90;1.00;;;;;;5038718;28;20455;-84